createdAt,value
2022-08-22T00:00:24.248Z,3
2022-08-22T00:15:31.733Z,3
2022-08-22T00:30:24.354Z,4
2022-08-22T00:45:24.789Z,4
2022-08-22T01:00:24.545Z,1
2022-08-22T01:15:24.642Z,5
2022-08-22T01:30:24.499Z,6
2022-08-22T01:45:24.751Z,5
2022-08-22T02:00:34.516Z,9
2022-08-22T02:15:24.847Z,3
2022-08-22T02:30:24.677Z,10
2022-08-22T02:45:24.749Z,6
2022-08-22T03:00:29.731Z,9
2022-08-22T03:15:24.087Z,7
2022-08-22T03:30:25.036Z,10
2022-08-22T03:45:24.468Z,9
2022-08-22T04:00:24.814Z,17
2022-08-22T04:15:24.399Z,13
2022-08-22T04:30:24.941Z,21
2022-08-22T04:45:24.371Z,19
2022-08-22T05:00:24.969Z,26
2022-08-22T05:15:24.557Z,22
2022-08-22T05:30:24.253Z,27
2022-08-22T05:45:24.463Z,17
2022-08-22T06:00:24.122Z,20
2022-08-22T06:15:24.327Z,17
2022-08-22T06:30:23.903Z,18
2022-08-22T06:45:25.069Z,22
2022-08-22T07:00:24.188Z,23
2022-08-22T07:15:24.409Z,23
2022-08-22T07:30:27.800Z,20
2022-08-22T07:45:24.678Z,12
2022-08-22T08:00:24.167Z,16
2022-08-22T08:15:24.361Z,14
2022-08-22T08:30:24.917Z,11
2022-08-22T08:45:24.837Z,16
2022-08-22T09:00:25.804Z,14
2022-08-22T09:15:24.187Z,13
2022-08-22T09:30:27.819Z,14
2022-08-22T09:45:23.977Z,10
2022-08-22T10:00:23.925Z,14
2022-08-22T10:15:24.630Z,17
2022-08-22T10:30:24.754Z,15
2022-08-22T10:45:35.410Z,12
2022-08-22T11:00:25.522Z,19
2022-08-22T11:15:27.307Z,20
2022-08-22T11:30:25.912Z,12
2022-08-22T11:45:24.181Z,14
2022-08-22T12:00:24.045Z,15
2022-08-22T12:15:24.543Z,14
2022-08-22T12:30:24.516Z,16
2022-08-22T12:45:24.327Z,17
2022-08-22T13:00:26.854Z,17
2022-08-22T13:15:24.865Z,19
2022-08-22T13:30:24.406Z,17
2022-08-22T13:45:24.164Z,17
2022-08-22T14:00:28.984Z,19
2022-08-22T14:15:24.609Z,19
2022-08-22T14:30:24.890Z,18
2022-08-22T14:45:24.464Z,15
2022-08-22T15:00:24.724Z,19
2022-08-22T15:15:25.099Z,21
2022-08-22T15:30:24.729Z,20
2022-08-22T15:45:23.874Z,20
2022-08-22T16:00:24.588Z,20
2022-08-22T16:15:23.820Z,25
2022-08-22T16:30:24.463Z,24
2022-08-22T16:45:24.727Z,22
2022-08-22T17:00:24.243Z,22
2022-08-22T17:15:24.414Z,14
2022-08-22T17:30:24.286Z,14
2022-08-22T17:45:27.699Z,6
2022-08-22T18:00:24.366Z,6
2022-08-22T18:15:25.064Z,9
2022-08-22T18:30:24.472Z,9
2022-08-22T18:45:24.402Z,12
2022-08-22T19:00:24.649Z,10
2022-08-22T19:15:24.295Z,10
2022-08-22T19:30:24.746Z,14
2022-08-22T19:45:24.030Z,11
2022-08-22T20:00:24.669Z,20
2022-08-22T20:15:24.233Z,20
2022-08-22T20:30:24.300Z,21
2022-08-22T20:45:24.113Z,16
2022-08-22T21:00:24.038Z,18
2022-08-22T21:15:24.583Z,15
2022-08-22T21:30:24.104Z,18
2022-08-22T21:45:24.291Z,11
2022-08-22T22:00:23.968Z,13
2022-08-22T22:15:24.464Z,6
2022-08-22T22:30:24.650Z,5
2022-08-22T22:45:23.971Z,8
2022-08-22T23:00:24.093Z,15
2022-08-22T23:15:24.964Z,9
2022-08-22T23:30:24.372Z,5
2022-08-22T23:45:24.797Z,10
